EZY76PY EHAM-EGGD
Flight info
| Callsign | EZY76PY |
|---|---|
| Flight time | 1h 11m |
| Altitude | 34000 |
| Route | IDRID L980 LAM L179 ICTAM |
| Aircraft | A320/M-SDE2E3FGHIJ1RWXYZ/LB1 |
Departure
| Time | 2026-05-04 19:14 |
|---|---|
| Airport | Amsterdam Airport Schiphol (EHAM) |
Arrival
| Time | 2026-05-04 20:25 |
|---|---|
| Airport | Bristol Airport (EGGD) |
| Time | Latitude | Longitude | Altitude | Speed | Heading |
|---|---|---|---|---|---|
| 2026-05-04 18:43 | 52.30983 | 4.75357 | -1 ft | 0 kts | 148° |
| 2026-05-04 19:02 | 52.30998 | 4.75343 | -1 ft | 4 kts | 153° |
| 2026-05-04 19:03 | 52.31018 | 4.75322 | -1 ft | 4 kts | 103° |
| 2026-05-04 19:03 | 52.31017 | 4.75291 | -1 ft | 2 kts | 70° |
| 2026-05-04 19:03 | 52.31016 | 4.75287 | -1 ft | 0 kts | 70° |
| 2026-05-04 19:05 | 52.31017 | 4.75288 | -1 ft | 1 kts | 70° |
| 2026-05-04 19:05 | 52.31026 | 4.75312 | -1 ft | 4 kts | 53° |
| 2026-05-04 19:05 | 52.31052 | 4.75366 | -1 ft | 8 kts | 52° |
| 2026-05-04 19:05 | 52.31089 | 4.75458 | -1 ft | 11 kts | 59° |
| 2026-05-04 19:06 | 52.31157 | 4.75470 | -1 ft | 11 kts | 355° |
| 2026-05-04 19:06 | 52.31243 | 4.75458 | -1 ft | 14 kts | 355° |
| 2026-05-04 19:06 | 52.31337 | 4.75448 | -1 ft | 12 kts | 356° |
| 2026-05-04 19:06 | 52.31374 | 4.75445 | -1 ft | 0 kts | 358° |
| 2026-05-04 19:07 | 52.31377 | 4.75445 | -1 ft | 2 kts | 358° |
| 2026-05-04 19:07 | 52.31410 | 4.75443 | -1 ft | 8 kts | 358° |
| 2026-05-04 19:08 | 52.31491 | 4.75414 | -1 ft | 14 kts | 315° |
| 2026-05-04 19:08 | 52.31506 | 4.75311 | -1 ft | 14 kts | 269° |
| 2026-05-04 19:08 | 52.31503 | 4.75187 | -1 ft | 13 kts | 267° |
| 2026-05-04 19:08 | 52.31498 | 4.75044 | -1 ft | 13 kts | 266° |
| 2026-05-04 19:09 | 52.31493 | 4.74909 | -1 ft | 12 kts | 266° |
| 2026-05-04 19:09 | 52.31488 | 4.74753 | -1 ft | 16 kts | 266° |
| 2026-05-04 19:09 | 52.31480 | 4.74552 | -1 ft | 20 kts | 267° |
| 2026-05-04 19:09 | 52.31474 | 4.74316 | -1 ft | 13 kts | 266° |
| 2026-05-04 19:10 | 52.31447 | 4.74187 | -1 ft | 12 kts | 226° |
| 2026-05-04 19:10 | 52.31402 | 4.74146 | -1 ft | 11 kts | 199° |
| 2026-05-04 19:10 | 52.31283 | 4.74128 | -1 ft | 17 kts | 183° |
| 2026-05-04 19:10 | 52.31150 | 4.74117 | -1 ft | 19 kts | 183° |
| 2026-05-04 19:11 | 52.31024 | 4.74107 | -1 ft | 17 kts | 182° |
| 2026-05-04 19:11 | 52.30910 | 4.74097 | -1 ft | 16 kts | 184° |
| 2026-05-04 19:11 | 52.30807 | 4.74084 | -1 ft | 14 kts | 184° |
| 2026-05-04 19:11 | 52.30714 | 4.74077 | -1 ft | 13 kts | 182° |
| 2026-05-04 19:12 | 52.30629 | 4.74071 | -1 ft | 12 kts | 183° |
| 2026-05-04 19:12 | 52.30439 | 4.74044 | -1 ft | 12 kts | 201° |
| 2026-05-04 19:12 | 52.30408 | 4.73935 | -1 ft | 12 kts | 272° |
| 2026-05-04 19:13 | 52.30418 | 4.73799 | -3 ft | 12 kts | 298° |
| 2026-05-04 19:13 | 52.30495 | 4.73766 | -3 ft | 16 kts | 1° |
| 2026-05-04 19:13 | 52.30788 | 4.73791 | 0 ft | 75 kts | 3° |
| 2026-05-04 19:13 | 52.31511 | 4.73859 | -3 ft | 131 kts | 4° |
| 2026-05-04 19:14 | 52.32522 | 4.73948 | 355 ft | 143 kts | 3° |
| 2026-05-04 19:14 | 52.33504 | 4.74021 | 1026 ft | 145 kts | 4° |
| 2026-05-04 19:14 | 52.34559 | 4.74100 | 1488 ft | 160 kts | 4° |
| 2026-05-04 19:14 | 52.35727 | 4.74061 | 1908 ft | 176 kts | 346° |
| 2026-05-04 19:15 | 52.36761 | 4.72819 | 2247 ft | 202 kts | 304° |
| 2026-05-04 19:15 | 52.37136 | 4.70488 | 2590 ft | 229 kts | 268° |
| 2026-05-04 19:15 | 52.36720 | 4.67843 | 2988 ft | 254 kts | 247° |
| 2026-05-04 19:15 | 52.35863 | 4.65236 | 3682 ft | 264 kts | 239° |
| 2026-05-04 19:16 | 52.34886 | 4.62665 | 4601 ft | 267 kts | 239° |
| 2026-05-04 19:16 | 52.33913 | 4.60066 | 5496 ft | 269 kts | 240° |
| 2026-05-04 19:16 | 52.32973 | 4.57404 | 6413 ft | 271 kts | 241° |
| 2026-05-04 19:16 | 52.32066 | 4.54680 | 7252 ft | 274 kts | 242° |
| 2026-05-04 19:17 | 52.31184 | 4.51907 | 8102 ft | 276 kts | 243° |
| 2026-05-04 19:17 | 52.30316 | 4.49087 | 8952 ft | 279 kts | 244° |
| 2026-05-04 19:17 | 52.29450 | 4.46234 | 9782 ft | 282 kts | 244° |
| 2026-05-04 19:17 | 52.28573 | 4.43332 | 10419 ft | 292 kts | 244° |
| 2026-05-04 19:18 | 52.27636 | 4.40237 | 10658 ft | 315 kts | 244° |
| 2026-05-04 19:18 | 52.26643 | 4.36964 | 11139 ft | 327 kts | 244° |
| 2026-05-04 19:18 | 52.25623 | 4.33609 | 11828 ft | 332 kts | 244° |
| 2026-05-04 19:18 | 52.24591 | 4.30214 | 12547 ft | 336 kts | 244° |
| 2026-05-04 19:19 | 52.23545 | 4.26786 | 13260 ft | 340 kts | 244° |
| 2026-05-04 19:19 | 52.22499 | 4.23362 | 13922 ft | 344 kts | 244° |
| 2026-05-04 19:19 | 52.21430 | 4.19858 | 14558 ft | 347 kts | 244° |
| 2026-05-04 19:19 | 52.20351 | 4.16325 | 15186 ft | 349 kts | 244° |
| 2026-05-04 19:20 | 52.19262 | 4.12772 | 15836 ft | 352 kts | 244° |
| 2026-05-04 19:20 | 52.18164 | 4.09196 | 16473 ft | 354 kts | 244° |
| 2026-05-04 19:20 | 52.17054 | 4.05593 | 17108 ft | 357 kts | 244° |
| 2026-05-04 19:20 | 52.15938 | 4.01970 | 17728 ft | 360 kts | 244° |
| 2026-05-04 19:21 | 52.14811 | 3.98316 | 18346 ft | 362 kts | 244° |
| 2026-05-04 19:21 | 52.13673 | 3.94639 | 18893 ft | 364 kts | 244° |
| 2026-05-04 19:21 | 52.12528 | 3.90944 | 19450 ft | 366 kts | 244° |
| 2026-05-04 19:21 | 52.11377 | 3.87240 | 19999 ft | 368 kts | 244° |
| 2026-05-04 19:22 | 52.10217 | 3.83510 | 20534 ft | 370 kts | 244° |
| 2026-05-04 19:22 | 52.09055 | 3.79765 | 21051 ft | 372 kts | 244° |
| 2026-05-04 19:22 | 52.07884 | 3.75999 | 21559 ft | 375 kts | 244° |
| 2026-05-04 19:22 | 52.06702 | 3.72207 | 22062 ft | 377 kts | 244° |
| 2026-05-04 19:23 | 52.05510 | 3.68396 | 22562 ft | 379 kts | 244° |
| 2026-05-04 19:23 | 52.04311 | 3.64559 | 23045 ft | 382 kts | 244° |
| 2026-05-04 19:23 | 52.03103 | 3.60701 | 23519 ft | 384 kts | 244° |
| 2026-05-04 19:23 | 52.01885 | 3.56827 | 23929 ft | 386 kts | 243° |
| 2026-05-04 19:24 | 52.00658 | 3.52930 | 24328 ft | 388 kts | 243° |
| 2026-05-04 19:24 | 51.99353 | 3.49081 | 24718 ft | 391 kts | 237° |
| 2026-05-04 19:24 | 51.97767 | 3.45500 | 25103 ft | 392 kts | 234° |
| 2026-05-04 19:24 | 51.96147 | 3.41918 | 25488 ft | 394 kts | 233° |
| 2026-05-04 19:25 | 51.94823 | 3.38990 | 25799 ft | 396 kts | 233° |
| 2026-05-04 19:25 | 51.93190 | 3.35384 | 26170 ft | 398 kts | 233° |
| 2026-05-04 19:25 | 51.91543 | 3.31760 | 26537 ft | 400 kts | 233° |
| 2026-05-04 19:25 | 51.89890 | 3.28128 | 26902 ft | 402 kts | 233° |
| 2026-05-04 19:26 | 51.88228 | 3.24472 | 27265 ft | 404 kts | 232° |
| 2026-05-04 19:26 | 51.86615 | 3.20735 | 27617 ft | 407 kts | 238° |
| 2026-05-04 19:26 | 51.85378 | 3.16601 | 27957 ft | 411 kts | 248° |
| 2026-05-04 19:26 | 51.84621 | 3.12123 | 28293 ft | 416 kts | 258° |
| 2026-05-04 19:27 | 51.84292 | 3.07457 | 28625 ft | 419 kts | 262° |
| 2026-05-04 19:27 | 51.84001 | 3.02744 | 28958 ft | 421 kts | 261° |
| 2026-05-04 19:27 | 51.83697 | 2.98025 | 29292 ft | 423 kts | 261° |
| 2026-05-04 19:27 | 51.83381 | 2.93287 | 29615 ft | 425 kts | 261° |
| 2026-05-04 19:28 | 51.83058 | 2.88519 | 29935 ft | 427 kts | 261° |
| 2026-05-04 19:28 | 51.82734 | 2.83737 | 30229 ft | 429 kts | 261° |
| 2026-05-04 19:28 | 51.82410 | 2.78931 | 30492 ft | 430 kts | 261° |
| 2026-05-04 19:28 | 51.82087 | 2.74119 | 30769 ft | 432 kts | 261° |
| 2026-05-04 19:29 | 51.81759 | 2.69287 | 31034 ft | 433 kts | 261° |
| 2026-05-04 19:29 | 51.81429 | 2.64453 | 31365 ft | 432 kts | 261° |
| 2026-05-04 19:29 | 51.81097 | 2.59635 | 31737 ft | 431 kts | 261° |
| 2026-05-04 19:29 | 51.80765 | 2.54838 | 32106 ft | 429 kts | 261° |
| 2026-05-04 19:30 | 51.80435 | 2.50051 | 32470 ft | 428 kts | 261° |
| 2026-05-04 19:30 | 51.80103 | 2.45274 | 32834 ft | 427 kts | 261° |
| 2026-05-04 19:30 | 51.79767 | 2.40516 | 33181 ft | 426 kts | 261° |
| 2026-05-04 19:30 | 51.79430 | 2.35765 | 33535 ft | 425 kts | 261° |
| 2026-05-04 19:31 | 51.79090 | 2.31027 | 33885 ft | 424 kts | 261° |
| 2026-05-04 19:31 | 51.78747 | 2.26297 | 34016 ft | 421 kts | 261° |
| 2026-05-04 19:31 | 51.78412 | 2.21643 | 34032 ft | 415 kts | 261° |
| 2026-05-04 19:32 | 51.77835 | 2.12393 | 34029 ft | 413 kts | 263° |
| 2026-05-04 19:32 | 51.77326 | 2.03161 | 34033 ft | 413 kts | 263° |
| 2026-05-04 19:33 | 51.76799 | 1.93935 | 34030 ft | 413 kts | 262° |
| 2026-05-04 19:33 | 51.76351 | 1.86569 | 34036 ft | 413 kts | 262° |
| 2026-05-04 19:34 | 51.75771 | 1.77357 | 34031 ft | 412 kts | 262° |
| 2026-05-04 19:34 | 51.75196 | 1.68149 | 34035 ft | 412 kts | 262° |
| 2026-05-04 19:35 | 51.74619 | 1.58939 | 34032 ft | 412 kts | 262° |
| 2026-05-04 19:35 | 51.74029 | 1.49739 | 34030 ft | 412 kts | 262° |
| 2026-05-04 19:36 | 51.73432 | 1.40540 | 34030 ft | 413 kts | 262° |
| 2026-05-04 19:36 | 51.72841 | 1.31331 | 34035 ft | 413 kts | 262° |
| 2026-05-04 19:37 | 51.72234 | 1.22137 | 34037 ft | 412 kts | 262° |
| 2026-05-04 19:37 | 51.71614 | 1.12940 | 34035 ft | 412 kts | 262° |
| 2026-05-04 19:38 | 51.70986 | 1.03752 | 34035 ft | 412 kts | 262° |
| 2026-05-04 19:38 | 51.70353 | 0.94564 | 34034 ft | 412 kts | 262° |
| 2026-05-04 19:39 | 51.70032 | 0.89859 | 34035 ft | 412 kts | 262° |
| 2026-05-04 19:39 | 51.69394 | 0.80705 | 34029 ft | 412 kts | 262° |
| 2026-05-04 19:40 | 51.68747 | 0.71583 | 34026 ft | 412 kts | 262° |
| 2026-05-04 19:40 | 51.68094 | 0.62402 | 34031 ft | 413 kts | 261° |
| 2026-05-04 19:41 | 51.67432 | 0.53212 | 34027 ft | 413 kts | 261° |
| 2026-05-04 19:41 | 51.66769 | 0.44121 | 34028 ft | 413 kts | 261° |
| 2026-05-04 19:42 | 51.66088 | 0.34932 | 34023 ft | 414 kts | 261° |
| 2026-05-04 19:42 | 51.65400 | 0.25725 | 34029 ft | 414 kts | 261° |
| 2026-05-04 19:43 | 51.64705 | 0.16526 | 34020 ft | 414 kts | 261° |
| 2026-05-04 19:43 | 51.63872 | 0.07360 | 34018 ft | 414 kts | 258° |
| 2026-05-04 19:44 | 51.62863 | -0.01608 | 33674 ft | 407 kts | 257° |
| 2026-05-04 19:44 | 51.62348 | -0.06074 | 33397 ft | 403 kts | 257° |
| 2026-05-04 19:44 | 51.61845 | -0.10497 | 33151 ft | 401 kts | 257° |
| 2026-05-04 19:44 | 51.61375 | -0.14912 | 32886 ft | 400 kts | 258° |
| 2026-05-04 19:45 | 51.60982 | -0.19310 | 32520 ft | 395 kts | 260° |
| 2026-05-04 19:45 | 51.60636 | -0.23692 | 32033 ft | 393 kts | 260° |
| 2026-05-04 19:45 | 51.60313 | -0.28032 | 31564 ft | 390 kts | 260° |
| 2026-05-04 19:45 | 51.59990 | -0.32345 | 31068 ft | 387 kts | 260° |
| 2026-05-04 19:46 | 51.59656 | -0.36626 | 30618 ft | 384 kts | 260° |
| 2026-05-04 19:46 | 51.59312 | -0.40870 | 30166 ft | 381 kts | 259° |
| 2026-05-04 19:46 | 51.58961 | -0.45078 | 29677 ft | 378 kts | 259° |
| 2026-05-04 19:46 | 51.58608 | -0.49243 | 29254 ft | 373 kts | 259° |
| 2026-05-04 19:47 | 51.58255 | -0.53352 | 28836 ft | 369 kts | 259° |
| 2026-05-04 19:47 | 51.57905 | -0.57405 | 28438 ft | 364 kts | 259° |
| 2026-05-04 19:47 | 51.57558 | -0.61411 | 28039 ft | 360 kts | 259° |
| 2026-05-04 19:47 | 51.57213 | -0.65382 | 27632 ft | 356 kts | 259° |
| 2026-05-04 19:48 | 51.56872 | -0.69299 | 27236 ft | 353 kts | 259° |
| 2026-05-04 19:48 | 51.56535 | -0.73181 | 26838 ft | 349 kts | 259° |
| 2026-05-04 19:48 | 51.56201 | -0.77031 | 26428 ft | 347 kts | 259° |
| 2026-05-04 19:48 | 51.55869 | -0.80854 | 26038 ft | 344 kts | 259° |
| 2026-05-04 19:49 | 51.55538 | -0.84653 | 25623 ft | 342 kts | 259° |
| 2026-05-04 19:49 | 51.55318 | -0.87155 | 25347 ft | 341 kts | 259° |
| 2026-05-04 19:49 | 51.54986 | -0.90917 | 24939 ft | 339 kts | 259° |
| 2026-05-04 19:49 | 51.54651 | -0.94667 | 24513 ft | 338 kts | 259° |
| 2026-05-04 19:50 | 51.54316 | -0.98403 | 24088 ft | 338 kts | 259° |
| 2026-05-04 19:50 | 51.53981 | -1.02131 | 23657 ft | 337 kts | 259° |
| 2026-05-04 19:50 | 51.53646 | -1.05860 | 23181 ft | 337 kts | 259° |
| 2026-05-04 19:50 | 51.53315 | -1.09565 | 22760 ft | 334 kts | 259° |
| 2026-05-04 19:51 | 51.52984 | -1.13250 | 22346 ft | 332 kts | 261° |
| 2026-05-04 19:51 | 51.52891 | -1.16946 | 21932 ft | 332 kts | 272° |
| 2026-05-04 19:51 | 51.53223 | -1.20668 | 21549 ft | 342 kts | 279° |
| 2026-05-04 19:51 | 51.53680 | -1.24433 | 21145 ft | 344 kts | 279° |
| 2026-05-04 19:52 | 51.54128 | -1.28199 | 20741 ft | 342 kts | 279° |
| 2026-05-04 19:52 | 51.54569 | -1.31949 | 20339 ft | 341 kts | 279° |
| 2026-05-04 19:52 | 51.55009 | -1.35678 | 19945 ft | 339 kts | 279° |
| 2026-05-04 19:52 | 51.55445 | -1.39388 | 19547 ft | 337 kts | 279° |
| 2026-05-04 19:53 | 51.55878 | -1.43087 | 19156 ft | 336 kts | 279° |
| 2026-05-04 19:53 | 51.56306 | -1.46766 | 18759 ft | 335 kts | 279° |
| 2026-05-04 19:53 | 51.56651 | -1.49762 | 18442 ft | 334 kts | 279° |
| 2026-05-04 19:53 | 51.56993 | -1.52743 | 18107 ft | 333 kts | 279° |
| 2026-05-04 19:54 | 51.57413 | -1.56394 | 17701 ft | 331 kts | 279° |
| 2026-05-04 19:54 | 51.57834 | -1.60015 | 17321 ft | 329 kts | 279° |
| 2026-05-04 19:54 | 51.58254 | -1.63618 | 16936 ft | 327 kts | 279° |
| 2026-05-04 19:54 | 51.58646 | -1.67207 | 16554 ft | 325 kts | 277° |
| 2026-05-04 19:55 | 51.58951 | -1.70799 | 16169 ft | 324 kts | 276° |
| 2026-05-04 19:55 | 51.59205 | -1.74394 | 15778 ft | 323 kts | 275° |
| 2026-05-04 19:55 | 51.59439 | -1.77980 | 15407 ft | 322 kts | 275° |
| 2026-05-04 19:55 | 51.59673 | -1.81561 | 15025 ft | 322 kts | 275° |
| 2026-05-04 19:56 | 51.59897 | -1.85137 | 14645 ft | 321 kts | 272° |
| 2026-05-04 19:56 | 51.59737 | -1.88698 | 14272 ft | 319 kts | 257° |
| 2026-05-04 19:56 | 51.59036 | -1.92046 | 14023 ft | 313 kts | 243° |
| 2026-05-04 19:56 | 51.57936 | -1.95030 | 13718 ft | 310 kts | 237° |
| 2026-05-04 19:57 | 51.56776 | -1.97947 | 13330 ft | 309 kts | 237° |
| 2026-05-04 19:57 | 51.55619 | -2.00846 | 12972 ft | 307 kts | 237° |
| 2026-05-04 19:57 | 51.54470 | -2.03722 | 12633 ft | 305 kts | 237° |
| 2026-05-04 19:57 | 51.53326 | -2.06578 | 12292 ft | 303 kts | 237° |
| 2026-05-04 19:58 | 51.52375 | -2.09549 | 11840 ft | 297 kts | 249° |
| 2026-05-04 19:58 | 51.51683 | -2.12643 | 11360 ft | 293 kts | 250° |
| 2026-05-04 19:58 | 51.50993 | -2.15718 | 10997 ft | 292 kts | 249° |
| 2026-05-04 19:58 | 51.50305 | -2.18771 | 10651 ft | 287 kts | 249° |
| 2026-05-04 19:59 | 51.49627 | -2.21771 | 10318 ft | 285 kts | 249° |
| 2026-05-04 19:59 | 51.48951 | -2.24752 | 9985 ft | 283 kts | 249° |
| 2026-05-04 19:59 | 51.48278 | -2.27711 | 9634 ft | 282 kts | 249° |
| 2026-05-04 19:59 | 51.47607 | -2.30657 | 9297 ft | 280 kts | 249° |
| 2026-05-04 20:00 | 51.46937 | -2.33589 | 8966 ft | 280 kts | 249° |
| 2026-05-04 20:00 | 51.46268 | -2.36513 | 8649 ft | 280 kts | 249° |
| 2026-05-04 20:00 | 51.45599 | -2.39437 | 8319 ft | 278 kts | 249° |
| 2026-05-04 20:00 | 51.44935 | -2.42339 | 7989 ft | 277 kts | 250° |
| 2026-05-04 20:01 | 51.44273 | -2.45232 | 7667 ft | 276 kts | 250° |
| 2026-05-04 20:01 | 51.43613 | -2.48108 | 7348 ft | 275 kts | 250° |
| 2026-05-04 20:01 | 51.42953 | -2.50979 | 7031 ft | 274 kts | 250° |
| 2026-05-04 20:01 | 51.42297 | -2.53837 | 6769 ft | 270 kts | 250° |
| 2026-05-04 20:02 | 51.41662 | -2.56586 | 6685 ft | 256 kts | 250° |
| 2026-05-04 20:02 | 51.41058 | -2.59199 | 6578 ft | 245 kts | 250° |
| 2026-05-04 20:02 | 51.40474 | -2.61712 | 6481 ft | 238 kts | 250° |
| 2026-05-04 20:02 | 51.39899 | -2.64188 | 6368 ft | 237 kts | 250° |
| 2026-05-04 20:03 | 51.39327 | -2.66656 | 6246 ft | 234 kts | 250° |
| 2026-05-04 20:03 | 51.38773 | -2.69047 | 6142 ft | 225 kts | 250° |
| 2026-05-04 20:03 | 51.38354 | -2.71404 | 6038 ft | 216 kts | 265° |
| 2026-05-04 20:03 | 51.38457 | -2.73756 | 5840 ft | 212 kts | 285° |
| 2026-05-04 20:04 | 51.38827 | -2.76034 | 5601 ft | 211 kts | 285° |
| 2026-05-04 20:04 | 51.39192 | -2.78301 | 5371 ft | 210 kts | 285° |
| 2026-05-04 20:04 | 51.39555 | -2.80564 | 5141 ft | 209 kts | 285° |
| 2026-05-04 20:04 | 51.39912 | -2.82811 | 4924 ft | 208 kts | 285° |
| 2026-05-04 20:05 | 51.40266 | -2.85051 | 4686 ft | 207 kts | 285° |
| 2026-05-04 20:05 | 51.40618 | -2.87277 | 4459 ft | 206 kts | 285° |
| 2026-05-04 20:05 | 51.40969 | -2.89500 | 4226 ft | 206 kts | 287° |
| 2026-05-04 20:05 | 51.41322 | -2.91721 | 4004 ft | 205 kts | 287° |
| 2026-05-04 20:06 | 51.41672 | -2.93939 | 3788 ft | 205 kts | 284° |
| 2026-05-04 20:06 | 51.41595 | -2.96193 | 3650 ft | 207 kts | 246° |
| 2026-05-04 20:06 | 51.40670 | -2.97911 | 3519 ft | 207 kts | 207° |
| 2026-05-04 20:06 | 51.39296 | -2.98314 | 3389 ft | 203 kts | 165° |
| 2026-05-04 20:07 | 51.38074 | -2.97301 | 3261 ft | 198 kts | 131° |
| 2026-05-04 20:07 | 51.37416 | -2.95427 | 3149 ft | 194 kts | 99° |
| 2026-05-04 20:07 | 51.37401 | -2.93287 | 3074 ft | 194 kts | 84° |
| 2026-05-04 20:07 | 51.37495 | -2.91138 | 2871 ft | 194 kts | 84° |
| 2026-05-04 20:08 | 51.37585 | -2.88982 | 2616 ft | 194 kts | 85° |
| 2026-05-04 20:08 | 51.37674 | -2.86820 | 2369 ft | 196 kts | 85° |
| 2026-05-04 20:08 | 51.37762 | -2.84640 | 2115 ft | 196 kts | 84° |
| 2026-05-04 20:08 | 51.37847 | -2.82504 | 1852 ft | 189 kts | 85° |
| 2026-05-04 20:09 | 51.37927 | -2.80487 | 1576 ft | 175 kts | 84° |
| 2026-05-04 20:09 | 51.38001 | -2.78631 | 1346 ft | 160 kts | 84° |
| 2026-05-04 20:09 | 51.38068 | -2.76946 | 1131 ft | 145 kts | 85° |
| 2026-05-04 20:09 | 51.38130 | -2.75382 | 931 ft | 139 kts | 85° |
| 2026-05-04 20:10 | 51.38191 | -2.73851 | 736 ft | 135 kts | 86° |
| 2026-05-04 20:10 | 51.38250 | -2.72378 | 652 ft | 124 kts | 86° |
| 2026-05-04 20:10 | 51.38322 | -2.71023 | 1459 ft | 113 kts | 82° |
| 2026-05-04 20:10 | 51.38412 | -2.69866 | 2253 ft | 102 kts | 78° |
| 2026-05-04 20:11 | 51.38495 | -2.68658 | 2768 ft | 119 kts | 85° |
| 2026-05-04 20:11 | 51.38562 | -2.67316 | 3453 ft | 123 kts | 83° |
| 2026-05-04 20:11 | 51.38620 | -2.65896 | 4039 ft | 142 kts | 84° |
| 2026-05-04 20:11 | 51.38676 | -2.63982 | 4149 ft | 199 kts | 86° |
| 2026-05-04 20:12 | 51.38749 | -2.61448 | 4142 ft | 256 kts | 83° |
| 2026-05-04 20:12 | 51.39340 | -2.58627 | 4147 ft | 269 kts | 57° |
| 2026-05-04 20:12 | 51.40621 | -2.56651 | 4146 ft | 249 kts | 27° |
| 2026-05-04 20:12 | 51.42222 | -2.56045 | 4138 ft | 231 kts | 356° |
| 2026-05-04 20:13 | 51.43697 | -2.56853 | 3953 ft | 225 kts | 324° |
| 2026-05-04 20:13 | 51.44633 | -2.58818 | 3738 ft | 224 kts | 289° |
| 2026-05-04 20:13 | 51.44845 | -2.61255 | 3621 ft | 219 kts | 272° |
| 2026-05-04 20:13 | 51.44854 | -2.63650 | 3490 ft | 212 kts | 271° |
| 2026-05-04 20:14 | 51.44834 | -2.65987 | 3345 ft | 208 kts | 270° |
| 2026-05-04 20:14 | 51.44809 | -2.68293 | 3147 ft | 206 kts | 270° |
| 2026-05-04 20:14 | 51.44784 | -2.70591 | 3048 ft | 206 kts | 270° |
| 2026-05-04 20:14 | 51.44758 | -2.72888 | 3039 ft | 206 kts | 270° |
| 2026-05-04 20:15 | 51.44732 | -2.75188 | 3041 ft | 206 kts | 270° |
| 2026-05-04 20:15 | 51.44706 | -2.77484 | 3036 ft | 206 kts | 270° |
| 2026-05-04 20:15 | 51.44677 | -2.79781 | 3038 ft | 206 kts | 270° |
| 2026-05-04 20:15 | 51.44649 | -2.82074 | 3045 ft | 207 kts | 270° |
| 2026-05-04 20:16 | 51.44619 | -2.84381 | 3038 ft | 207 kts | 270° |
| 2026-05-04 20:16 | 51.44590 | -2.86684 | 3028 ft | 206 kts | 270° |
| 2026-05-04 20:16 | 51.44560 | -2.88984 | 3036 ft | 207 kts | 270° |
| 2026-05-04 20:16 | 51.44532 | -2.91285 | 3031 ft | 206 kts | 270° |
| 2026-05-04 20:17 | 51.44503 | -2.93580 | 3034 ft | 206 kts | 270° |
| 2026-05-04 20:17 | 51.44474 | -2.95876 | 3033 ft | 206 kts | 270° |
| 2026-05-04 20:17 | 51.44447 | -2.98167 | 3032 ft | 206 kts | 270° |
| 2026-05-04 20:17 | 51.44420 | -3.00465 | 3030 ft | 206 kts | 270° |
| 2026-05-04 20:18 | 51.44395 | -3.02762 | 3031 ft | 204 kts | 270° |
| 2026-05-04 20:18 | 51.44370 | -3.04996 | 3024 ft | 198 kts | 270° |
| 2026-05-04 20:18 | 51.44282 | -3.07177 | 3024 ft | 196 kts | 254° |
| 2026-05-04 20:18 | 51.43549 | -3.08971 | 3029 ft | 195 kts | 214° |
| 2026-05-04 20:19 | 51.42292 | -3.09629 | 3036 ft | 192 kts | 174° |
| 2026-05-04 20:19 | 51.41087 | -3.08882 | 3030 ft | 187 kts | 133° |
| 2026-05-04 20:19 | 51.40493 | -3.07171 | 3067 ft | 175 kts | 101° |
| 2026-05-04 20:19 | 51.40050 | -3.05374 | 3018 ft | 176 kts | 127° |
| 2026-05-04 20:20 | 51.39157 | -3.04026 | 3057 ft | 177 kts | 138° |
| 2026-05-04 20:20 | 51.38211 | -3.02847 | 3032 ft | 170 kts | 137° |
| 2026-05-04 20:20 | 51.37481 | -3.01419 | 3024 ft | 164 kts | 114° |
| 2026-05-04 20:20 | 51.37173 | -2.99697 | 3025 ft | 161 kts | 91° |
| 2026-05-04 20:21 | 51.37219 | -2.97914 | 3029 ft | 160 kts | 84° |
| 2026-05-04 20:21 | 51.37293 | -2.96138 | 3026 ft | 160 kts | 84° |
| 2026-05-04 20:21 | 51.37440 | -2.92576 | 2977 ft | 161 kts | 84° |
| 2026-05-04 20:22 | 51.37512 | -2.90797 | 2818 ft | 160 kts | 84° |
| 2026-05-04 20:22 | 51.37584 | -2.89027 | 2613 ft | 159 kts | 84° |
| 2026-05-04 20:22 | 51.37655 | -2.87274 | 2419 ft | 157 kts | 85° |
| 2026-05-04 20:22 | 51.37725 | -2.85538 | 2209 ft | 156 kts | 84° |
| 2026-05-04 20:23 | 51.37794 | -2.83826 | 2013 ft | 148 kts | 84° |
| 2026-05-04 20:23 | 51.37857 | -2.82250 | 1812 ft | 137 kts | 84° |
| 2026-05-04 20:23 | 51.37917 | -2.80746 | 1616 ft | 135 kts | 84° |
| 2026-05-04 20:23 | 51.37966 | -2.79533 | 1464 ft | 135 kts | 84° |
| 2026-05-04 20:24 | 51.38025 | -2.78042 | 1266 ft | 133 kts | 84° |
| 2026-05-04 20:24 | 51.38084 | -2.76555 | 1074 ft | 134 kts | 85° |
| 2026-05-04 20:24 | 51.38143 | -2.75053 | 894 ft | 136 kts | 85° |
| 2026-05-04 20:24 | 51.38205 | -2.73549 | 691 ft | 135 kts | 86° |
| 2026-05-04 20:25 | 51.38257 | -2.72140 | 624 ft | 106 kts | 86° |
| 2026-05-04 20:25 | 51.38290 | -2.71366 | 602 ft | 51 kts | 85° |
| 2026-05-04 20:25 | 51.38309 | -2.70912 | 604 ft | 33 kts | 85° |
| 2026-05-04 20:25 | 51.38368 | -2.70746 | 620 ft | 13 kts | 21° |
| 2026-05-04 20:26 | 51.38431 | -2.70710 | 618 ft | 7 kts | 10° |
| 2026-05-04 20:26 | 51.38463 | -2.70747 | 622 ft | 5 kts | 296° |
| 2026-05-04 20:26 | 51.38468 | -2.70787 | 618 ft | 3 kts | 279° |
| 2026-05-04 20:26 | 51.38466 | -2.70865 | 612 ft | 14 kts | 266° |
| 2026-05-04 20:27 | 51.38462 | -2.70969 | 614 ft | 6 kts | 266° |
| 2026-05-04 20:27 | 51.38484 | -2.71006 | 615 ft | 6 kts | 330° |
| 2026-05-04 20:27 | 51.38527 | -2.71015 | 623 ft | 5 kts | 355° |
| 2026-05-04 20:27 | 51.38545 | -2.71017 | 616 ft | 1 kts | 356° |
| 2026-05-04 20:28 | 51.38550 | -2.71017 | 618 ft | 0 kts | 356° |